地図

経路データ

SID SEASON NUMBER BASIN SUBBASIN NAME ISO_TIME NATURE LAT LON WMO_WIND WMO_PRES WMO_AGENCY TRACK_TYPE DIST2LAND LANDFALL IFLAG USA_AGENCY USA_ATCF_ID USA_LAT USA_LON USA_RECORD USA_STATUS USA_WIND USA_PRES USA_SSHS USA_R34_NE USA_R34_SE USA_R34_SW USA_R34_NW USA_R50_NE USA_R50_SE USA_R50_SW USA_R50_NW USA_R64_NE USA_R64_SE USA_R64_SW USA_R64_NW USA_POCI USA_ROCI USA_RMW USA_EYE TOKYO_LAT TOKYO_LON TOKYO_GRADE TOKYO_WIND TOKYO_PRES TOKYO_R50_DIR TOKYO_R50_LONG TOKYO_R50_SHORT TOKYO_R30_DIR TOKYO_R30_LONG TOKYO_R30_SHORT TOKYO_LAND CMA_LAT CMA_LON CMA_CAT CMA_WIND CMA_PRES HKO_LAT HKO_LON HKO_CAT HKO_WIND HKO_PRES NEWDELHI_LAT NEWDELHI_LON NEWDELHI_GRADE NEWDELHI_WIND NEWDELHI_PRES NEWDELHI_CI NEWDELHI_DP NEWDELHI_POCI REUNION_LAT REUNION_LON REUNION_TYPE REUNION_WIND REUNION_PRES REUNION_TNUM REUNION_CI REUNION_RMW REUNION_R34_NE REUNION_R34_SE REUNION_R34_SW REUNION_R34_NW REUNION_R50_NE REUNION_R50_SE REUNION_R50_SW REUNION_R50_NW REUNION_R64_NE REUNION_R64_SE REUNION_R64_SW REUNION_R64_NW BOM_LAT BOM_LON BOM_TYPE BOM_WIND BOM_PRES BOM_TNUM BOM_CI BOM_RMW BOM_R34_NE BOM_R34_SE BOM_R34_SW BOM_R34_NW BOM_R50_NE BOM_R50_SE BOM_R50_SW BOM_R50_NW BOM_R64_NE BOM_R64_SE BOM_R64_SW BOM_R64_NW BOM_ROCI BOM_POCI BOM_EYE BOM_POS_METHOD BOM_PRES_METHOD NADI_LAT NADI_LON NADI_CAT NADI_WIND NADI_PRES WELLINGTON_LAT WELLINGTON_LON WELLINGTON_WIND WELLINGTON_PRES DS824_LAT DS824_LON DS824_STAGE DS824_WIND DS824_PRES TD9636_LAT TD9636_LON TD9636_STAGE TD9636_WIND TD9636_PRES TD9635_LAT TD9635_LON TD9635_WIND TD9635_PRES TD9635_ROCI NEUMANN_LAT NEUMANN_LON NEUMANN_CLASS NEUMANN_WIND NEUMANN_PRES MLC_LAT MLC_LON MLC_CLASS MLC_WIND MLC_PRES USA_GUST BOM_GUST BOM_GUST_PER REUNION_GUST REUNION_GUST_PER USA_SEAHGT USA_SEARAD_NE USA_SEARAD_SE USA_SEARAD_SW USA_SEARAD_NW STORM_SPEED STORM_DIR
1981022S13155 1981 6 SP EA NOT_NAMED 1981-01-21 18:00:00 TS -12.8000 154.700 main 500 500 O_________O_O_ jtwc_sh SH121981 -12.8000 154.700 15 -1 -12.8000 154.700 1 15 -12.8000 154.700 TC 15 3 109
1981022S13155 1981 6 SP EA NOT_NAMED 1981-01-21 21:00:00 TS -12.8496 154.847 main 510 510 P_________P_P_ SH121981 -12.8400 154.852 15 -1 -12.8688 154.836 1 15 -12.8400 154.852 TC 15 3 112
1981022S13155 1981 6 SP EA NOT_NAMED 1981-01-22 00:00:00 TS -12.9133 154.992 main 534 534 O_________P_O_ jtwc_sh SH121981 -12.9000 155.000 15 -1 -12.9400 154.977 1 15 -12.9000 155.000 TC 15 3 118
1981022S13155 1981 6 SP EA NOT_NAMED 1981-01-22 03:00:00 TS -13.0004 155.138 main 549 549 P_________P_P_ SH121981 -12.9925 155.143 15 -1 -13.0162 155.130 1 15 -12.9925 155.143 TC 15 4 122
1981022S13155 1981 6 SP EA NOT_NAMED 1981-01-22 06:00:00 TS -13.1000 155.300 main 573 568 O_________O_O_ jtwc_sh SH121981 -13.1000 155.300 15 -1 -13.1000 155.300 1 15 -13.1000 155.300 TC 15 4 120
1981022S13155 1981 6 SP EA NOT_NAMED 1981-01-22 09:00:00 TS -13.1976 155.492 main 573 568 P_________P_P_ SH121981 -13.2000 155.493 17 -1 -13.1928 155.490 1 16 -13.2000 155.493 TC 17 4 117
1981022S13155 1981 6 SP EA NOT_NAMED 1981-01-22 12:00:00 TS -13.2975 155.697 main 574 569 O_________P_O_ jtwc_sh SH121981 -13.3000 155.700 20 -1 -13.2925 155.692 1 17 -13.3000 155.700 TC 20 5 117
1981022S13155 1981 6 SP EA NOT_NAMED 1981-01-22 15:00:00 TS -13.3987 155.905 main 576 572 P_________P_P_ SH121981 -13.4000 155.908 20 -1 -13.3960 155.899 1 18 -13.4000 155.908 TC 20 4 117
1981022S13155 1981 6 SP EA NOT_NAMED 1981-01-22 18:00:00 TS -13.5000 156.100 main 578 570 O_________O_O_ jtwc_sh SH121981 -13.5000 156.100 20 -1 -13.5000 156.100 1 20 -13.5000 156.100 TC 20 4 120
1981022S13155 1981 6 SP EA NOT_NAMED 1981-01-22 21:00:00 TS -13.5999 156.259 main 571 571 P_________P_P_ SH121981 -13.6000 156.250 20 -1 -13.5999 156.278 1 20 -13.6000 156.250 TC 20 4 123
1981022S13155 1981 6 SP EA NOT_NAMED 1981-01-23 00:00:00 TS -13.7000 156.417 main 572 565 O_________P_O_ jtwc_sh SH121981 -13.7000 156.400 20 -1 -13.6999 156.450 1 20 -13.7000 156.400 TC 20 4 121
1981022S13155 1981 6 SP EA NOT_NAMED 1981-01-23 03:00:00 TS -13.8000 156.602 main 567 560 P_________P_P_ SH121981 -13.8000 156.593 20 -1 -13.7999 156.622 1 20 -13.8000 156.593 TC 20 4 118
1981022S13155 1981 6 SP EA NOT_NAMED 1981-01-23 06:00:00 TS -13.9000 156.800 main 563 557 O_________O_O_ jtwc_sh SH121981 -13.9000 156.800 20 -1 -13.9000 156.800 1 20 -13.9000 156.800 TC 20 4 117
1981022S13155 1981 6 SP EA NOT_NAMED 1981-01-23 09:00:00 TS -13.9986 156.998 main 560 554 P_________P_P_ SH121981 -14.0000 157.000 20 -1 -13.9959 156.993 1 20 -14.0000 157.000 TC 20 4 117
1981022S13155 1981 6 SP EA NOT_NAMED 1981-01-23 12:00:00 TS -14.0975 157.198 main 558 553 O_________P_O_ jtwc_sh SH121981 -14.1000 157.200 20 -1 -14.0925 157.193 1 20 -14.1000 157.200 TC 20 4 117
1981022S13155 1981 6 SP EA NOT_NAMED 1981-01-23 15:00:00 TS -14.1976 157.399 main 557 552 P_________P_P_ SH121981 -14.2000 157.400 20 -1 -14.1928 157.396 1 20 -14.2000 157.400 TC 20 4 117
1981022S13155 1981 6 SP EA NOT_NAMED 1981-01-23 18:00:00 TS -14.3000 157.600 main 557 553 O_________O_O_ jtwc_sh SH121981 -14.3000 157.600 20 -1 -14.3000 157.600 1 20 -14.3000 157.600 TC 20 4 118
1981022S13155 1981 6 SP EA NOT_NAMED 1981-01-23 21:00:00 TS -14.4009 157.795 main 559 555 P_________P_P_ SH121981 -14.3925 157.800 20 -1 -14.4177 157.784 1 20 -14.3925 157.800 TC 20 4 120
1981022S13155 1981 6 SP EA NOT_NAMED 1981-01-24 00:00:00 TS -14.5141 157.990 main 561 561 O_________P_O_ jtwc_sh SH121981 -14.5000 158.000 20 -1 -14.5423 157.970 1 20 -14.5000 158.000 TC 20 5 124
1981022S13155 1981 6 SP EA NOT_NAMED 1981-01-24 03:00:00 TS -14.6569 158.185 main 575 572 P_________P_P_ SH121981 -14.6500 158.193 20 -1 -14.6707 158.171 1 20 -14.6500 158.193 TC 20 5 126
1981022S13155 1981 6 SP EA NOT_NAMED 1981-01-24 06:00:00 TS -14.8000 158.400 main 578 571 O_________O_O_ jtwc_sh SH121981 -14.8000 158.400 20 -1 -14.8000 158.400 1 20 -14.8000 158.400 TC 20 5 120
1981022S13155 1981 6 SP EA NOT_NAMED 1981-01-24 09:00:00 TS -14.9096 158.641 main 575 565 P_________P_P_ SH121981 -14.8999 158.628 20 -1 -14.9291 158.667 1 20 -14.8999 158.628 TC 20 6 113
1981022S13155 1981 6 SP EA NOT_NAMED 1981-01-24 12:00:00 TS -15.0192 158.921 main 565 557 O_________P_O_ jtwc_sh SH121981 -15.0000 158.900 20 -1 -15.0575 158.963 1 20 -15.0000 158.900 TC 20 6 113
1981022S13155 1981 6 SP EA NOT_NAMED 1981-01-24 15:00:00 TS -15.1607 159.254 main 562 552 P_________P_P_ SH121981 -15.1500 159.242 20 -1 -15.1822 159.277 1 20 -15.1500 159.242 TC 20 7 113
1981022S13155 1981 6 SP EA NOT_NAMED 1981-01-24 18:00:00 TS -15.3000 159.600 main 557 552 O_________O_O_ jtwc_sh SH121981 -15.3000 159.600 20 -1 -15.3000 159.600 1 20 -15.3000 159.600 TC 20 7 111
1981022S13155 1981 6 SP EA NOT_NAMED 1981-01-24 21:00:00 TS -15.4059 159.901 main 554 550 P_________P_P_ SH121981 -15.4074 159.900 20 -1 -15.4029 159.902 1 20 -15.4074 159.900 TC 20 6 109
1981022S13155 1981 6 SP MM NOT_NAMED 1981-01-25 00:00:00 TS -15.4999 160.204 main 554 547 O_________P_O_ jtwc_sh SH121981 -15.5000 160.200 20 -1 -15.4996 160.213 1 20 -15.5000 160.200 TC 20 6 107
1981022S13155 1981 6 SP MM NOT_NAMED 1981-01-25 03:00:00 TS -15.5988 160.538 main 555 550 P_________P_P_ SH121981 -15.5999 160.535 20 -1 -15.5965 160.542 1 20 -15.5999 160.535 TC 20 7 107
1981022S13155 1981 6 SP MM NOT_NAMED 1981-01-25 06:00:00 TS -15.7000 160.900 main 557 553 O_________O_O_ jtwc_sh SH121981 -15.7000 160.900 20 -1 -15.7000 160.900 1 20 -15.7000 160.900 TC 20 8 105
1981022S13155 1981 6 SP MM NOT_NAMED 1981-01-25 09:00:00 TS -15.7982 161.292 main 562 527 P_________P_P_ SH121981 -15.7924 161.285 20 -1 -15.8098 161.304 1 21 -15.7924 161.285 TC 20 8 105
1981022S13155 1981 6 SP MM NOT_NAMED 1981-01-25 12:00:00 TS -15.9092 161.712 main 527 486 O_________P_O_ jtwc_sh SH121981 -15.9000 161.700 20 -1 -15.9277 161.735 1 22 -15.9000 161.700 TC 20 9 107
1981022S13155 1981 6 SP MM NOT_NAMED 1981-01-25 15:00:00 TS -16.0472 162.158 main 475 437 P_________P_P_ SH121981 -16.0425 162.150 22 -1 -16.0567 162.173 1 23 -16.0425 162.150 TC 22 9 109
1981022S13155 1981 6 SP MM NOT_NAMED 1981-01-25 18:00:00 TS -16.2000 162.600 main 437 398 O_________O_O_ jtwc_sh SH121981 -16.2000 162.600 25 -1 -16.2000 162.600 1 25 -16.2000 162.600 TC 25 9 110
1981022S13155 1981 6 SP MM NOT_NAMED 1981-01-25 21:00:00 TS -16.3430 163.009 main 398 363 P_________P_P_ SH121981 -16.3424 163.015 25 -1 -16.3441 162.998 1 25 -16.3424 163.015 TC 25 8 112
1981022S13155 1981 6 SP MM NOT_NAMED 1981-01-26 00:00:00 TS -16.5016 163.393 main 363 337 O_________P_O_ jtwc_sh SH121981 -16.5000 163.400 25 -1 -16.5047 163.380 1 25 -16.5000 163.400 TC 25 8 116
1981022S13155 1981 6 SP MM NOT_NAMED 1981-01-26 03:00:00 TS -16.6859 163.754 main 332 315 P_________P_P_ SH121981 -16.6849 163.758 25 -1 -16.6879 163.748 1 25 -16.6849 163.758 TC 25 8 120
1981022S13155 1981 6 SP MM NOT_NAMED 1981-01-26 06:00:00 TS -16.9000 164.100 main 315 300 O_________O_O_ jtwc_sh SH121981 -16.9000 164.100 25 -1 -16.9000 164.100 1 25 -16.9000 164.100 TC 25 8 124
1981022S13155 1981 6 SP MM NOT_NAMED 1981-01-26 09:00:00 TS -17.1359 164.450 main 291 284 P_________P_P_ SH121981 -17.1350 164.458 25 -1 -17.1378 164.436 1 25 -17.1350 164.458 TC 25 8 127
1981022S13155 1981 6 SP MM NOT_NAMED 1981-01-26 12:00:00 TS -17.4015 164.786 main 284 278 O_________P_O_ jtwc_sh SH121981 -17.4000 164.800 25 -1 -17.4046 164.758 1 25 -17.4000 164.800 TC 25 8 132
1981022S13155 1981 6 SP MM NOT_NAMED 1981-01-26 15:00:00 TS -17.6929 165.092 main 278 270 P_________P_P_ SH121981 -17.6924 165.100 25 -1 -17.6941 165.076 1 25 -17.6924 165.100 TC 25 8 136
1981022S13155 1981 6 SP MM NOT_NAMED 1981-01-26 18:00:00 TS -18.0000 165.400 main 270 256 O_________O_O_ jtwc_sh SH121981 -18.0000 165.400 25 -1 -18.0000 165.400 1 25 -18.0000 165.400 TC 25 9 134
1981022S13155 1981 6 SP MM NOT_NAMED 1981-01-26 21:00:00 TS -18.2916 165.736 main 256 246 P_________P_P_ SH121981 -18.2925 165.743 25 -1 -18.2899 165.723 1 25 -18.2925 165.743 TC 25 9 133
1981022S13155 1981 6 SP MM NOT_NAMED 1981-01-27 00:00:00 TS -18.5990 166.085 main 253 241 O_________P_O_ jtwc_sh SH121981 -18.6000 166.100 25 -1 -18.5969 166.056 1 25 -18.6000 166.100 TC 25 9 134
1981022S13155 1981 6 SP MM NOT_NAMED 1981-01-27 03:00:00 TS -18.9334 166.427 main 246 231 P_________P_P_ SH121981 -18.9348 166.435 25 -1 -18.9304 166.411 1 25 -18.9348 166.435 TC 25 10 136
1981022S13155 1981 6 SP MM NOT_NAMED 1981-01-27 06:00:00 TS -19.3000 166.800 main 236 231 O_________O_O_ jtwc_sh SH121981 -19.3000 166.800 25 -1 -19.3000 166.800 1 25 -19.3000 166.800 TC 25 11 135
1981022S13155 1981 6 SP MM NOT_NAMED 1981-01-27 09:00:00 TS -19.6888 167.229 main 231 218 P_________P_P_ SH121981 -19.6774 167.228 25 -1 -19.7114 167.232 1 23 -19.6774 167.228 TC 25 12 134
1981022S13155 1981 6 SP MM NOT_NAMED 1981-01-27 12:00:00 TS -20.1188 167.700 main 224 212 O_________P_O_ jtwc_sh SH121981 -20.1000 167.700 25 -1 -20.1564 167.699 1 22 -20.1000 167.700 TC 25 13 135
1981022S13155 1981 6 SP MM NOT_NAMED 1981-01-27 15:00:00 TS -20.5963 168.194 main 215 206 P_________P_P_ SH121981 -20.5828 168.194 22 -1 -20.6232 168.192 1 21 -20.5828 168.194 TC 22 14 136
1981022S13155 1981 6 SP MM NOT_NAMED 1981-01-27 18:00:00 TS -21.1000 168.700 main 214 O_________O_O_ jtwc_sh SH121981 -21.1000 168.700 20 -1 -21.1000 168.700 1 20 -21.1000 168.700 TC 20 14 137

デジタル台風データ・検索

IBTrACS Databaseについて

本データベースは、米国NOAAが公開する1842年以降の世界の熱帯低気圧のベストトラックデータアーカイブInternational Best Track Archive for Climate Stewardship (IBTrACS)を、ウェブで閲覧しやすい形式に変換したものです。

最終更新日:2021-10-21